Cedar East Bethel, Minnesota
Current Conditions -  °F | °C
As of 10:45 AM on Saturday 25 Oct 2014 (Local Time) from KANE Reporting Station
Scattered Clouds Scattered Clouds  
Wind Chill: 57°   Ceiling: Unl
Heat Index: 57°   Visibility: 10mi
Dew Point: 34°   Wind: 14mph
Humidity: 41%   Direction: 300°WNW
Pressure: 30.04"   Gusts: 21mph
Location:  45.3385°N, 93.2617°W
Report Text: KANE 251545Z 30012G18KT 10SM SCT150 14/01 A3004
Loading
Personal Weather Stations






























Interactive Weather Map
Tropical Storm Tracking
New forecast layout! Learn more

10-Day Weather Forecast

Advertisements
Track Severe Weather on mobile